sensor_id;sensor_type;location;lat;lon;timestamp;pressure;altitude;pressure_sealevel;temperature;humidity
37832;BME280;23671;38.090;-122.570;2023-05-03T00:00:34;100859.16;;;20.56;44.49
37832;BME280;23671;38.090;-122.570;2023-05-03T00:03:01;100860.63;;;20.58;44.37
37832;BME280;23671;38.090;-122.570;2023-05-03T00:05:30;100865.81;;;20.60;44.53
37832;BME280;23671;38.090;-122.570;2023-05-03T00:07:57;100861.28;;;20.60;44.58
37832;BME280;23671;38.090;-122.570;2023-05-03T00:10:25;100871.66;;;20.63;44.69
37832;BME280;23671;38.090;-122.570;2023-05-03T00:12:52;100861.56;;;20.65;44.54
37832;BME280;23671;38.090;-122.570;2023-05-03T00:15:21;100874.63;;;20.68;44.68
37832;BME280;23671;38.090;-122.570;2023-05-03T00:17:48;100864.75;;;20.69;44.44
37832;BME280;23671;38.090;-122.570;2023-05-03T00:20:15;100868.88;;;20.71;44.42
37832;BME280;23671;38.090;-122.570;2023-05-03T00:22:44;100875.09;;;20.72;44.21
37832;BME280;23671;38.090;-122.570;2023-05-03T00:25:11;100873.25;;;20.72;44.39
37832;BME280;23671;38.090;-122.570;2023-05-03T00:27:38;100866.84;;;20.73;44.44
37832;BME280;23671;38.090;-122.570;2023-05-03T00:30:06;100863.31;;;20.73;44.47
37832;BME280;23671;38.090;-122.570;2023-05-03T00:32:33;100857.81;;;20.74;44.17
37832;BME280;23671;38.090;-122.570;2023-05-03T00:35:00;100857.81;;;20.74;44.23
37832;BME280;23671;38.090;-122.570;2023-05-03T00:37:27;100856.97;;;20.74;44.26
37832;BME280;23671;38.090;-122.570;2023-05-03T00:39:56;100859.47;;;20.75;44.14
37832;BME280;23671;38.090;-122.570;2023-05-03T00:42:23;100855.94;;;20.75;44.26
37832;BME280;23671;38.090;-122.570;2023-05-03T00:44:50;100848.72;;;20.75;44.17
37832;BME280;23671;38.090;-122.570;2023-05-03T00:47:17;100850.41;;;20.76;43.95
37832;BME280;23671;38.090;-122.570;2023-05-03T00:49:44;100848.72;;;20.75;44.04
37832;BME280;23671;38.090;-122.570;2023-05-03T00:52:11;100850.41;;;20.76;44.01
37832;BME280;23671;38.090;-122.570;2023-05-03T00:54:39;100846.69;;;20.77;44.07
37832;BME280;23671;38.090;-122.570;2023-05-03T00:57:07;100853.09;;;20.76;44.08
37832;BME280;23671;38.090;-122.570;2023-05-03T00:59:34;100850.41;;;20.76;43.87
37832;BME280;23671;38.090;-122.570;2023-05-03T01:02:01;100850.56;;;20.75;43.88
37832;BME280;23671;38.090;-122.570;2023-05-03T01:04:28;100845.03;;;20.76;44.02
37832;BME280;23671;38.090;-122.570;2023-05-03T01:10:01;100847.06;;;20.74;43.76
37832;BME280;23671;38.090;-122.570;2023-05-03T01:12:52;100844.53;;;20.73;43.73
37832;BME280;23671;38.090;-122.570;2023-05-03T01:15:43;100845.91;;;20.54;40.78
37832;BME280;23671;38.090;-122.570;2023-05-03T01:18:16;100852.59;;;20.13;39.37
37832;BME280;23671;38.090;-122.570;2023-05-03T01:20:47;100852.84;;;19.81;39.48
37832;BME280;23671;38.090;-122.570;2023-05-03T01:25:52;100854.53;;;19.04;39.52
37832;BME280;23671;38.090;-122.570;2023-05-03T01:28:19;100853.22;;;19.00;40.17
37832;BME280;23671;38.090;-122.570;2023-05-03T01:30:48;100855.75;;;18.86;40.60
37832;BME280;23671;38.090;-122.570;2023-05-03T01:38:50;100844.47;;;19.15;41.45
37832;BME280;23671;38.090;-122.570;2023-05-03T01:41:18;100844.56;;;19.29;42.11
37832;BME280;23671;38.090;-122.570;2023-05-03T01:43:46;100844.22;;;19.40;42.28
37832;BME280;23671;38.090;-122.570;2023-05-03T01:46:14;100843.50;;;19.46;42.28
37832;BME280;23671;38.090;-122.570;2023-05-03T01:48:41;100851.03;;;19.51;42.06
37832;BME280;23671;38.090;-122.570;2023-05-03T01:51:08;100853.00;;;19.57;42.19
37832;BME280;23671;38.090;-122.570;2023-05-03T01:53:36;100848.47;;;19.57;41.96
37832;BME280;23671;38.090;-122.570;2023-05-03T01:56:03;100856.34;;;19.59;41.99
37832;BME280;23671;38.090;-122.570;2023-05-03T01:58:30;100847.47;;;19.58;41.99
37832;BME280;23671;38.090;-122.570;2023-05-03T02:00:57;100851.81;;;19.59;42.17
37832;BME280;23671;38.090;-122.570;2023-05-03T02:03:24;100857.16;;;19.59;41.91
37832;BME280;23671;38.090;-122.570;2023-05-03T02:05:51;100859.03;;;19.59;42.00
37832;BME280;23671;38.090;-122.570;2023-05-03T02:08:18;100862.69;;;19.58;42.02
37832;BME280;23671;38.090;-122.570;2023-05-03T02:10:48;100864.53;;;19.57;41.99
37832;BME280;23671;38.090;-122.570;2023-05-03T02:13:15;100861.84;;;19.57;42.05
37832;BME280;23671;38.090;-122.570;2023-05-03T02:15:42;100864.91;;;19.54;41.67
37832;BME280;23671;38.090;-122.570;2023-05-03T02:18:09;100855.22;;;19.53;41.88
37832;BME280;23671;38.090;-122.570;2023-05-03T02:20:36;100866.25;;;19.50;41.87
37832;BME280;23671;38.090;-122.570;2023-05-03T02:23:04;100867.44;;;19.48;41.56
37832;BME280;23671;38.090;-122.570;2023-05-03T02:25:31;100862.25;;;19.46;41.50
37832;BME280;23671;38.090;-122.570;2023-05-03T02:27:58;100862.44;;;19.45;41.57
37832;BME280;23671;38.090;-122.570;2023-05-03T02:30:25;100866.47;;;19.41;41.39
37832;BME280;23671;38.090;-122.570;2023-05-03T02:32:52;100863.31;;;19.37;41.33
37832;BME280;23671;38.090;-122.570;2023-05-03T02:35:19;100867.81;;;19.37;41.46
37832;BME280;23671;38.090;-122.570;2023-05-03T02:37:46;100864.66;;;19.33;41.55
37832;BME280;23671;38.090;-122.570;2023-05-03T02:40:14;100874.53;;;19.33;41.50
37832;BME280;23671;38.090;-122.570;2023-05-03T02:42:41;100869.50;;;19.30;41.62
37832;BME280;23671;38.090;-122.570;2023-05-03T02:45:08;100879.38;;;19.29;41.16
37832;BME280;23671;38.090;-122.570;2023-05-03T02:47:36;100877.22;;;19.25;41.31
37832;BME280;23671;38.090;-122.570;2023-05-03T02:50:03;100879.59;;;19.20;41.06
37832;BME280;23671;38.090;-122.570;2023-05-03T02:52:31;100888.78;;;19.17;41.09
37832;BME280;23671;38.090;-122.570;2023-05-03T02:54:58;100894.31;;;19.16;41.23
37832;BME280;23671;38.090;-122.570;2023-05-03T02:57:25;100893.84;;;19.12;40.82
37832;BME280;23671;38.090;-122.570;2023-05-03T02:59:53;100887.81;;;19.10;40.97
37832;BME280;23671;38.090;-122.570;2023-05-03T03:02:20;100895.34;;;19.07;40.77
37832;BME280;23671;38.090;-122.570;2023-05-03T03:04:47;100890.34;;;19.03;40.80
37832;BME280;23671;38.090;-122.570;2023-05-03T03:07:14;100897.88;;;19.00;40.81
37832;BME280;23671;38.090;-122.570;2023-05-03T03:09:41;100895.56;;;18.97;40.79
37832;BME280;23671;38.090;-122.570;2023-05-03T03:12:08;100893.19;;;18.94;40.54
37832;BME280;23671;38.090;-122.570;2023-05-03T03:14:35;100894.41;;;18.91;40.37
37832;BME280;23671;38.090;-122.570;2023-05-03T03:17:07;100893.88;;;18.88;40.53
37832;BME280;23671;38.090;-122.570;2023-05-03T03:19:37;100889.06;;;18.83;40.64
37832;BME280;23671;38.090;-122.570;2023-05-03T03:22:04;100900.09;;;18.80;40.53
37832;BME280;23671;38.090;-122.570;2023-05-03T03:24:32;100893.41;;;18.76;40.45
37832;BME280;23671;38.090;-122.570;2023-05-03T03:26:59;100893.56;;;18.75;40.26
37832;BME280;23671;38.090;-122.570;2023-05-03T03:29:28;100895.59;;;18.73;40.24
37832;BME280;23671;38.090;-122.570;2023-05-03T03:31:55;100897.75;;;18.69;40.43
37832;BME280;23671;38.090;-122.570;2023-05-03T03:34:23;100908.66;;;18.68;40.16
37832;BME280;23671;38.090;-122.570;2023-05-03T03:36:50;100898.44;;;18.63;40.09
37832;BME280;23671;38.090;-122.570;2023-05-03T03:39:17;100903.13;;;18.61;40.10
37832;BME280;23671;38.090;-122.570;2023-05-03T03:41:44;100906.47;;;18.55;40.01
37832;BME280;23671;38.090;-122.570;2023-05-03T03:44:12;100912.34;;;18.51;40.20
37832;BME280;23671;38.090;-122.570;2023-05-03T03:46:39;100905.66;;;18.47;40.18
37832;BME280;23671;38.090;-122.570;2023-05-03T03:49:06;100902.47;;;18.43;40.09
37832;BME280;23671;38.090;-122.570;2023-05-03T03:51:35;100908.44;;;18.37;40.30
37832;BME280;23671;38.090;-122.570;2023-05-03T03:54:04;100909.13;;;18.31;40.03
37832;BME280;23671;38.090;-122.570;2023-05-03T03:56:31;100906.75;;;18.28;40.01
37832;BME280;23671;38.090;-122.570;2023-05-03T03:58:58;100907.44;;;18.22;40.42
37832;BME280;23671;38.090;-122.570;2023-05-03T04:01:25;100910.44;;;18.19;40.45
37832;BME280;23671;38.090;-122.570;2023-05-03T04:03:53;100910.28;;;18.12;40.28
37832;BME280;23671;38.090;-122.570;2023-05-03T04:06:20;100912.75;;;18.06;40.51
37832;BME280;23671;38.090;-122.570;2023-05-03T04:08:47;100918.75;;;18.00;40.54
37832;BME280;23671;38.090;-122.570;2023-05-03T04:11:14;100913.91;;;17.95;40.52
37832;BME280;23671;38.090;-122.570;2023-05-03T04:13:41;100919.38;;;17.86;40.80
37832;BME280;23671;38.090;-122.570;2023-05-03T04:16:08;100923.38;;;17.82;40.77
37832;BME280;23671;38.090;-122.570;2023-05-03T04:18:36;100922.53;;;17.73;40.85
37832;BME280;23671;38.090;-122.570;2023-05-03T04:21:03;100916.81;;;17.68;40.96
37832;BME280;23671;38.090;-122.570;2023-05-03T04:23:30;100915.34;;;17.66;41.11
37832;BME280;23671;38.090;-122.570;2023-05-03T04:25:57;100913.81;;;17.63;41.35
37832;BME280;23671;38.090;-122.570;2023-05-03T04:28:25;100917.13;;;17.57;41.25
37832;BME280;23671;38.090;-122.570;2023-05-03T04:30:53;100917.63;;;17.53;41.38
37832;BME280;23671;38.090;-122.570;2023-05-03T04:33:20;100917.22;;;17.48;41.18
37832;BME280;23671;38.090;-122.570;2023-05-03T04:35:51;100915.88;;;17.44;41.43
37832;BME280;23671;38.090;-122.570;2023-05-03T04:38:18;100919.19;;;17.38;41.59
37832;BME280;23671;38.090;-122.570;2023-05-03T04:40:45;100933.53;;;17.37;41.72
37832;BME280;23671;38.090;-122.570;2023-05-03T04:43:12;100926.50;;;17.36;41.59
37832;BME280;23671;38.090;-122.570;2023-05-03T04:45:39;100934.50;;;17.27;41.57
37832;BME280;23671;38.090;-122.570;2023-05-03T04:48:07;100938.16;;;17.26;41.58
37832;BME280;23671;38.090;-122.570;2023-05-03T04:50:34;100936.78;;;17.22;41.82
37832;BME280;23671;38.090;-122.570;2023-05-03T04:53:01;100943.13;;;17.21;41.69
37832;BME280;23671;38.090;-122.570;2023-05-03T04:55:29;100947.78;;;17.19;41.99
37832;BME280;23671;38.090;-122.570;2023-05-03T04:57:56;100948.94;;;17.17;41.87
37832;BME280;23671;38.090;-122.570;2023-05-03T05:00:23;100949.25;;;17.14;42.03
37832;BME280;23671;38.090;-122.570;2023-05-03T05:02:51;100958.41;;;17.11;41.97
37832;BME280;23671;38.090;-122.570;2023-05-03T05:05:18;100955.41;;;17.06;42.28
37832;BME280;23671;38.090;-122.570;2023-05-03T05:07:45;100956.72;;;17.10;42.22
37832;BME280;23671;38.090;-122.570;2023-05-03T05:10:12;100950.34;;;17.03;42.04
37832;BME280;23671;38.090;-122.570;2023-05-03T05:12:40;100953.69;;;17.05;42.04
37832;BME280;23671;38.090;-122.570;2023-05-03T05:15:08;100948.38;;;17.05;42.26
37832;BME280;23671;38.090;-122.570;2023-05-03T05:17:35;100954.03;;;17.02;42.35
37832;BME280;23671;38.090;-122.570;2023-05-03T05:20:03;100948.81;;;17.01;42.29
37832;BME280;23671;38.090;-122.570;2023-05-03T05:22:32;100962.13;;;16.93;42.42
37832;BME280;23671;38.090;-122.570;2023-05-03T05:24:59;100953.75;;;16.88;42.62
37832;BME280;23671;38.090;-122.570;2023-05-03T05:27:27;100950.03;;;16.81;42.68
37832;BME280;23671;38.090;-122.570;2023-05-03T05:29:54;100946.97;;;16.76;42.83
37832;BME280;23671;38.090;-122.570;2023-05-03T05:32:21;100951.63;;;16.74;42.93
37832;BME280;23671;38.090;-122.570;2023-05-03T05:34:49;100946.63;;;16.71;43.21
37832;BME280;23671;38.090;-122.570;2023-05-03T05:37:21;100952.28;;;16.68;43.27
37832;BME280;23671;38.090;-122.570;2023-05-03T05:39:49;100953.09;;;16.68;43.34
37832;BME280;23671;38.090;-122.570;2023-05-03T05:42:16;100941.75;;;16.66;43.56
37832;BME280;23671;38.090;-122.570;2023-05-03T05:44:43;100949.06;;;16.64;43.32
37832;BME280;23671;38.090;-122.570;2023-05-03T05:47:10;100946.72;;;16.61;43.60
37832;BME280;23671;38.090;-122.570;2023-05-03T05:49:37;100939.84;;;16.59;43.56
37832;BME280;23671;38.090;-122.570;2023-05-03T05:52:05;100942.69;;;16.57;43.49
37832;BME280;23671;38.090;-122.570;2023-05-03T05:54:33;100943.69;;;16.56;43.80
37832;BME280;23671;38.090;-122.570;2023-05-03T05:57:00;100946.63;;;16.53;43.78
37832;BME280;23671;38.090;-122.570;2023-05-03T05:59:28;100942.31;;;16.52;43.77
37832;BME280;23671;38.090;-122.570;2023-05-03T06:01:56;100938.13;;;16.50;43.58
37832;BME280;23671;38.090;-122.570;2023-05-03T06:04:25;100927.75;;;16.47;43.72
37832;BME280;23671;38.090;-122.570;2023-05-03T06:06:52;100931.13;;;16.49;43.63
37832;BME280;23671;38.090;-122.570;2023-05-03T06:09:20;100924.41;;;16.45;43.68
37832;BME280;23671;38.090;-122.570;2023-05-03T06:11:47;100926.91;;;16.46;43.85
37832;BME280;23671;38.090;-122.570;2023-05-03T06:14:14;100932.53;;;16.43;44.14
37832;BME280;23671;38.090;-122.570;2023-05-03T06:16:42;100929.03;;;16.43;44.05
37832;BME280;23671;38.090;-122.570;2023-05-03T06:19:10;100931.72;;;16.43;44.05
37832;BME280;23671;38.090;-122.570;2023-05-03T06:21:37;100936.47;;;16.39;43.79
37832;BME280;23671;38.090;-122.570;2023-05-03T06:24:04;100944.78;;;16.36;43.97
37832;BME280;23671;38.090;-122.570;2023-05-03T06:26:31;100942.13;;;16.36;43.94
37832;BME280;23671;38.090;-122.570;2023-05-03T06:28:58;100947.47;;;16.36;43.90
37832;BME280;23671;38.090;-122.570;2023-05-03T06:31:26;100934.28;;;16.34;44.46
37832;BME280;23671;38.090;-122.570;2023-05-03T06:33:53;100947.63;;;16.34;44.15
37832;BME280;23671;38.090;-122.570;2023-05-03T06:36:20;100956.06;;;16.30;44.20
37832;BME280;23671;38.090;-122.570;2023-05-03T06:38:47;100957.06;;;16.29;44.21
37832;BME280;23671;38.090;-122.570;2023-05-03T06:41:14;100957.19;;;16.27;44.62
37832;BME280;23671;38.090;-122.570;2023-05-03T06:43:41;100954.00;;;16.24;44.57
37832;BME280;23671;38.090;-122.570;2023-05-03T06:46:08;100963.97;;;16.22;44.80
37832;BME280;23671;38.090;-122.570;2023-05-03T06:48:36;100965.94;;;16.20;44.52
37832;BME280;23671;38.090;-122.570;2023-05-03T06:51:03;100963.44;;;16.18;44.42
37832;BME280;23671;38.090;-122.570;2023-05-03T06:53:30;100972.56;;;16.16;44.83
37832;BME280;23671;38.090;-122.570;2023-05-03T06:55:57;100972.03;;;16.12;44.96
37832;BME280;23671;38.090;-122.570;2023-05-03T06:58:24;100968.69;;;16.10;44.85
37832;BME280;23671;38.090;-122.570;2023-05-03T07:00:52;100974.31;;;16.07;45.10
37832;BME280;23671;38.090;-122.570;2023-05-03T07:03:19;100969.16;;;16.06;44.77
37832;BME280;23671;38.090;-122.570;2023-05-03T07:05:46;100977.13;;;16.06;45.08
37832;BME280;23671;38.090;-122.570;2023-05-03T07:08:14;100978.81;;;16.07;45.18
37832;BME280;23671;38.090;-122.570;2023-05-03T07:10:41;100969.59;;;16.01;45.23
37832;BME280;23671;38.090;-122.570;2023-05-03T07:13:08;100967.38;;;15.97;45.26
37832;BME280;23671;38.090;-122.570;2023-05-03T07:15:35;100970.03;;;15.97;45.06
37832;BME280;23671;38.090;-122.570;2023-05-03T07:18:02;100971.31;;;15.93;45.25
37832;BME280;23671;38.090;-122.570;2023-05-03T07:20:29;100965.16;;;15.92;45.14
37832;BME280;23671;38.090;-122.570;2023-05-03T07:22:56;100964.31;;;15.92;45.37
37832;BME280;23671;38.090;-122.570;2023-05-03T07:25:23;100967.31;;;15.89;45.09
37832;BME280;23671;38.090;-122.570;2023-05-03T07:27:50;100963.94;;;15.87;45.35
37832;BME280;23671;38.090;-122.570;2023-05-03T07:30:18;100961.56;;;15.84;45.29
37832;BME280;23671;38.090;-122.570;2023-05-03T07:32:45;100964.38;;;15.82;45.17
37832;BME280;23671;38.090;-122.570;2023-05-03T07:35:12;100961.03;;;15.80;45.62
37832;BME280;23671;38.090;-122.570;2023-05-03T07:37:39;100959.50;;;15.78;45.52
37832;BME280;23671;38.090;-122.570;2023-05-03T07:40:07;100957.69;;;15.78;45.46
37832;BME280;23671;38.090;-122.570;2023-05-03T07:42:35;100952.66;;;15.75;45.38
37832;BME280;23671;38.090;-122.570;2023-05-03T07:45:02;100958.00;;;15.75;45.35
37832;BME280;23671;38.090;-122.570;2023-05-03T07:47:29;100951.13;;;15.73;45.39
37832;BME280;23671;38.090;-122.570;2023-05-03T07:49:58;100952.09;;;15.72;45.27
37832;BME280;23671;38.090;-122.570;2023-05-03T07:52:25;100951.56;;;15.68;45.63
37832;BME280;23671;38.090;-122.570;2023-05-03T07:54:52;100947.09;;;15.69;45.55
37832;BME280;23671;38.090;-122.570;2023-05-03T07:57:20;100954.38;;;15.67;45.47
37832;BME280;23671;38.090;-122.570;2023-05-03T07:59:48;100950.19;;;15.64;45.68
37832;BME280;23671;38.090;-122.570;2023-05-03T08:02:16;100948.66;;;15.62;45.50
37832;BME280;23671;38.090;-122.570;2023-05-03T08:04:43;100941.66;;;15.61;45.64
37832;BME280;23671;38.090;-122.570;2023-05-03T08:07:10;100943.63;;;15.59;45.52
37832;BME280;23671;38.090;-122.570;2023-05-03T08:09:37;100947.13;;;15.59;45.53
37832;BME280;23671;38.090;-122.570;2023-05-03T08:12:04;100948.25;;;15.57;45.70
37832;BME280;23671;38.090;-122.570;2023-05-03T08:14:31;100939.56;;;15.55;45.66
37832;BME280;23671;38.090;-122.570;2023-05-03T08:17:01;100940.84;;;15.51;45.72
37832;BME280;23671;38.090;-122.570;2023-05-03T08:19:30;100935.53;;;15.51;45.78
37832;BME280;23671;38.090;-122.570;2023-05-03T08:21:57;100928.41;;;15.51;45.85
37832;BME280;23671;38.090;-122.570;2023-05-03T08:24:25;100934.03;;;15.48;45.66
37832;BME280;23671;38.090;-122.570;2023-05-03T08:26:52;100935.16;;;15.45;45.92
37832;BME280;23671;38.090;-122.570;2023-05-03T08:29:19;100932.50;;;15.45;45.73
37832;BME280;23671;38.090;-122.570;2023-05-03T08:31:46;100929.97;;;15.44;45.82
37832;BME280;23671;38.090;-122.570;2023-05-03T08:34:13;100930.13;;;15.42;45.85
37832;BME280;23671;38.090;-122.570;2023-05-03T08:36:41;100932.06;;;15.40;45.88
37832;BME280;23671;38.090;-122.570;2023-05-03T08:39:08;100928.72;;;15.38;45.83
37832;BME280;23671;38.090;-122.570;2023-05-03T08:41:35;100921.69;;;15.37;45.88
37832;BME280;23671;38.090;-122.570;2023-05-03T08:44:02;100920.16;;;15.35;46.06
37832;BME280;23671;38.090;-122.570;2023-05-03T08:46:30;100922.81;;;15.35;45.98
37832;BME280;23671;38.090;-122.570;2023-05-03T08:49:02;100902.84;;;15.31;46.08
37832;BME280;23671;38.090;-122.570;2023-05-03T08:51:30;100904.66;;;15.30;46.05
37832;BME280;23671;38.090;-122.570;2023-05-03T08:53:58;100906.47;;;15.30;46.18
37832;BME280;23671;38.090;-122.570;2023-05-03T08:56:43;100909.28;;;15.28;46.02
37832;BME280;23671;38.090;-122.570;2023-05-03T08:59:11;100893.75;;;15.24;46.09
37832;BME280;23671;38.090;-122.570;2023-05-03T09:01:41;100905.25;;;15.24;46.17
37832;BME280;23671;38.090;-122.570;2023-05-03T09:04:10;100901.91;;;15.22;46.17
37832;BME280;23671;38.090;-122.570;2023-05-03T09:06:38;100896.56;;;15.22;46.20
37832;BME280;23671;38.090;-122.570;2023-05-03T09:09:05;100902.03;;;15.21;46.17
37832;BME280;23671;38.090;-122.570;2023-05-03T09:11:35;100909.19;;;15.20;46.32
37832;BME280;23671;38.090;-122.570;2023-05-03T09:14:14;100904.16;;;15.17;46.18
37832;BME280;23671;38.090;-122.570;2023-05-03T09:16:44;100893.66;;;15.16;46.33
37832;BME280;23671;38.090;-122.570;2023-05-03T09:19:13;100901.94;;;15.13;46.38
37832;BME280;23671;38.090;-122.570;2023-05-03T09:21:42;100911.72;;;15.12;46.49
37832;BME280;23671;38.090;-122.570;2023-05-03T09:24:19;100904.59;;;15.13;46.49
37832;BME280;23671;38.090;-122.570;2023-05-03T09:26:48;100895.22;;;15.09;46.48
37832;BME280;23671;38.090;-122.570;2023-05-03T09:29:31;100888.25;;;15.08;46.55
37832;BME280;23671;38.090;-122.570;2023-05-03T09:32:01;100886.41;;;15.08;46.59
37832;BME280;23671;38.090;-122.570;2023-05-03T09:34:31;100889.91;;;15.09;46.30
37832;BME280;23671;38.090;-122.570;2023-05-03T09:36:58;100899.69;;;15.08;46.57
37832;BME280;23671;38.090;-122.570;2023-05-03T09:39:26;100893.69;;;15.06;46.70
37832;BME280;23671;38.090;-122.570;2023-05-03T09:41:53;100888.38;;;15.06;46.74
37832;BME280;23671;38.090;-122.570;2023-05-03T09:44:46;100880.69;;;15.03;46.59
37832;BME280;23671;38.090;-122.570;2023-05-03T09:47:20;100872.19;;;15.00;46.62
37832;BME280;23671;38.090;-122.570;2023-05-03T09:49:47;100882.81;;;15.00;46.75
37832;BME280;23671;38.090;-122.570;2023-05-03T09:52:14;100888.25;;;14.98;46.75
37832;BME280;23671;38.090;-122.570;2023-05-03T09:54:42;100883.78;;;14.99;46.77
37832;BME280;23671;38.090;-122.570;2023-05-03T09:57:09;100879.47;;;14.98;46.66
37832;BME280;23671;38.090;-122.570;2023-05-03T09:59:38;100879.63;;;14.96;46.67
37832;BME280;23671;38.090;-122.570;2023-05-03T10:02:06;100877.91;;;14.95;46.87
37832;BME280;23671;38.090;-122.570;2023-05-03T10:04:46;100877.91;;;14.95;46.83
37832;BME280;23671;38.090;-122.570;2023-05-03T10:07:17;100878.91;;;14.94;46.87
37832;BME280;23671;38.090;-122.570;2023-05-03T10:09:49;100872.91;;;14.92;46.92
37832;BME280;23671;38.090;-122.570;2023-05-03T10:12:17;100874.56;;;14.93;46.83
37832;BME280;23671;38.090;-122.570;2023-05-03T10:14:48;100875.69;;;14.91;46.91
37832;BME280;23671;38.090;-122.570;2023-05-03T10:17:30;100868.84;;;14.88;46.87
37832;BME280;23671;38.090;-122.570;2023-05-03T10:25:33;100880.63;;;14.86;47.09
37832;BME280;23671;38.090;-122.570;2023-05-03T10:28:05;100877.41;;;14.82;47.14
37832;BME280;23671;38.090;-122.570;2023-05-03T10:30:36;100886.09;;;14.84;47.16
37832;BME280;23671;38.090;-122.570;2023-05-03T10:35:39;100880.06;;;14.82;47.42
37832;BME280;23671;38.090;-122.570;2023-05-03T10:38:19;100886.34;;;14.81;47.09
37832;BME280;23671;38.090;-122.570;2023-05-03T10:40:47;100883.69;;;14.81;47.16
37832;BME280;23671;38.090;-122.570;2023-05-03T10:46:03;100880.63;;;14.76;47.18
37832;BME280;23671;38.090;-122.570;2023-05-03T10:48:31;100877.28;;;14.74;47.40
37832;BME280;23671;38.090;-122.570;2023-05-03T10:51:36;100874.63;;;14.74;47.71
37832;BME280;23671;38.090;-122.570;2023-05-03T10:54:04;100872.97;;;14.73;47.11
37832;BME280;23671;38.090;-122.570;2023-05-03T10:56:31;100870.44;;;14.72;47.40
37832;BME280;23671;38.090;-122.570;2023-05-03T10:58:58;100873.94;;;14.72;47.60
37832;BME280;23671;38.090;-122.570;2023-05-03T11:01:27;100870.59;;;14.70;47.57
37832;BME280;23671;38.090;-122.570;2023-05-03T11:04:19;100871.56;;;14.69;47.62
37832;BME280;23671;38.090;-122.570;2023-05-03T11:06:47;100862.59;;;14.70;47.58
37832;BME280;23671;38.090;-122.570;2023-05-03T11:09:17;100861.91;;;14.68;47.47
37832;BME280;23671;38.090;-122.570;2023-05-03T11:11:44;100864.72;;;14.67;47.73
37832;BME280;23671;38.090;-122.570;2023-05-03T11:14:11;100865.84;;;14.64;47.49
37832;BME280;23671;38.090;-122.570;2023-05-03T11:16:40;100862.47;;;14.62;47.76
37832;BME280;23671;38.090;-122.570;2023-05-03T11:19:13;100863.47;;;14.61;47.67
37832;BME280;23671;38.090;-122.570;2023-05-03T11:21:42;100864.19;;;14.63;47.78
37832;BME280;23671;38.090;-122.570;2023-05-03T11:24:09;100861.66;;;14.62;47.93
37832;BME280;23671;38.090;-122.570;2023-05-03T11:26:39;100866.13;;;14.61;47.83
37832;BME280;23671;38.090;-122.570;2023-05-03T11:29:08;100860.13;;;14.59;47.60
37832;BME280;23671;38.090;-122.570;2023-05-03T11:31:36;100867.94;;;14.61;48.00
37832;BME280;23671;38.090;-122.570;2023-05-03T11:34:04;100861.09;;;14.58;47.75
37832;BME280;23671;38.090;-122.570;2023-05-03T11:36:32;100861.09;;;14.58;47.75
37832;BME280;23671;38.090;-122.570;2023-05-03T11:39:00;100865.72;;;14.56;47.84
37832;BME280;23671;38.090;-122.570;2023-05-03T11:41:28;100868.53;;;14.54;47.89
37832;BME280;23671;38.090;-122.570;2023-05-03T11:43:55;100863.19;;;14.54;48.05
37832;BME280;23671;38.090;-122.570;2023-05-03T11:46:27;100866.16;;;14.51;48.04
37832;BME280;23671;38.090;-122.570;2023-05-03T11:48:57;100866.97;;;14.52;48.03
37832;BME280;23671;38.090;-122.570;2023-05-03T11:51:24;100863.50;;;14.51;48.12
37832;BME280;23671;38.090;-122.570;2023-05-03T11:53:53;100860.00;;;14.51;48.21
37832;BME280;23671;38.090;-122.570;2023-05-03T11:56:20;100861.97;;;14.49;48.08
37832;BME280;23671;38.090;-122.570;2023-05-03T11:58:53;100866.31;;;14.50;48.25
37832;BME280;23671;38.090;-122.570;2023-05-03T12:01:26;100862.94;;;14.48;48.41
37832;BME280;23671;38.090;-122.570;2023-05-03T12:03:58;100864.06;;;14.45;48.35
37832;BME280;23671;38.090;-122.570;2023-05-03T12:06:27;100863.38;;;14.43;48.41
37832;BME280;23671;38.090;-122.570;2023-05-03T12:08:55;100868.84;;;14.42;48.42
37832;BME280;23671;38.090;-122.570;2023-05-03T12:11:23;100868.84;;;14.42;48.46
37832;BME280;23671;38.090;-122.570;2023-05-03T12:14:00;100870.50;;;14.43;48.12
37832;BME280;23671;38.090;-122.570;2023-05-03T12:16:28;100863.63;;;14.40;48.68
37832;BME280;23671;38.090;-122.570;2023-05-03T12:19:11;100858.47;;;14.39;48.31
37832;BME280;23671;38.090;-122.570;2023-05-03T12:21:46;100865.63;;;14.38;48.19
37832;BME280;23671;38.090;-122.570;2023-05-03T12:24:14;100865.63;;;14.38;48.24
37832;BME280;23671;38.090;-122.570;2023-05-03T12:26:46;100862.13;;;14.38;48.27
37832;BME280;23671;38.090;-122.570;2023-05-03T12:29:14;100863.78;;;14.39;48.68
37832;BME280;23671;38.090;-122.570;2023-05-03T12:31:43;100860.44;;;14.37;48.33
37832;BME280;23671;38.090;-122.570;2023-05-03T12:34:10;100865.91;;;14.35;48.61
37832;BME280;23671;38.090;-122.570;2023-05-03T12:36:38;100868.56;;;14.35;48.71
37832;BME280;23671;38.090;-122.570;2023-05-03T12:39:06;100871.34;;;14.34;48.57
37832;BME280;23671;38.090;-122.570;2023-05-03T12:41:34;100869.53;;;14.34;48.43
37832;BME280;23671;38.090;-122.570;2023-05-03T12:44:01;100871.50;;;14.32;48.54
37832;BME280;23671;38.090;-122.570;2023-05-03T12:46:28;100877.50;;;14.34;48.57
37832;BME280;23671;38.090;-122.570;2023-05-03T12:48:55;100872.47;;;14.31;48.53